createdAt,value
2023-01-27T00:02:04.487Z,21.60
2023-01-27T00:07:06.122Z,24.98
2023-01-27T00:12:39.439Z,21.40
2023-01-27T00:17:41.584Z,18.35
2023-01-27T00:23:01.716Z,20.35
2023-01-27T00:28:05.856Z,22.45
2023-01-27T00:33:30.062Z,23.23
2023-01-27T00:38:33.761Z,19.60
2023-01-27T00:43:35.407Z,21.23
2023-01-27T00:48:37.272Z,21.88
2023-01-27T00:53:39.302Z,21.80
2023-01-27T00:58:41.111Z,20.55
2023-01-27T01:03:43.332Z,18.13
2023-01-27T01:08:45.216Z,24.83
2023-01-27T01:13:47.273Z,27.10
2023-01-27T01:18:49.200Z,23.60
2023-01-27T01:23:51.041Z,23.60
2023-01-27T01:28:52.761Z,20.60
2023-01-27T01:33:54.404Z,22.83
2023-01-27T01:38:59.215Z,20.95
2023-01-27T01:44:22.519Z,17.60
2023-01-27T01:49:28.419Z,17.95
2023-01-27T01:54:38.795Z,20.85
2023-01-27T01:59:59.923Z,15.85
2023-01-27T02:05:14.916Z,17.30
2023-01-27T02:10:16.769Z,19.65
2023-01-27T02:15:21.607Z,17.50
2023-01-27T02:20:32.324Z,20.15
2023-01-27T02:25:43.801Z,22.65
2023-01-27T02:30:45.727Z,19.48
2023-01-27T02:36:17.790Z,21.00
2023-01-27T02:41:40.377Z,22.67
2023-01-27T02:46:42.404Z,18.65
2023-01-27T02:51:44.301Z,18.77
2023-01-27T02:56:46.146Z,18.98
2023-01-27T03:01:51.644Z,21.85
2023-01-27T03:06:54.523Z,22.83
2023-01-27T03:12:14.849Z,21.27
2023-01-27T03:17:35.178Z,23.83
2023-01-27T03:22:37.737Z,22.08
2023-01-27T03:27:39.507Z,27.08
2023-01-27T03:33:10.560Z,23.55
2023-01-27T03:38:53.736Z,22.17
2023-01-27T03:44:14.209Z,27.25
2023-01-27T03:49:15.987Z,23.63
2023-01-27T03:54:17.603Z,29.23
2023-01-27T03:59:19.283Z,24.88
2023-01-27T04:04:39.358Z,25.77
2023-01-27T04:09:41.010Z,30.23
2023-01-27T04:14:42.658Z,26.45
2023-01-27T04:19:44.791Z,25.95
2023-01-27T04:24:46.502Z,27.80
2023-01-27T04:29:48.411Z,30.25
2023-01-27T04:34:50.134Z,27.92
2023-01-27T04:39:52.048Z,26.38
2023-01-27T04:44:53.687Z,24.48
2023-01-27T04:49:55.601Z,21.45
2023-01-27T04:54:57.358Z,31.65
2023-01-27T04:59:59.058Z,25.00
2023-01-27T05:05:04.662Z,28.17
2023-01-27T05:10:07.472Z,24.10
2023-01-27T05:15:09.429Z,21.83
2023-01-27T05:20:11.729Z,28.20
2023-01-27T05:25:13.635Z,27.63
2023-01-27T05:30:15.728Z,31.95
2023-01-27T05:35:17.509Z,29.45
2023-01-27T05:40:19.224Z,27.20
2023-01-27T05:45:21.007Z,27.23
2023-01-27T05:50:22.770Z,23.80
2023-01-27T05:55:24.398Z,34.03
2023-01-27T06:00:26.163Z,22.38
2023-01-27T06:05:27.784Z,22.90
2023-01-27T06:10:29.806Z,27.25
2023-01-27T06:15:31.987Z,24.33
2023-01-27T06:20:33.741Z,29.65
2023-01-27T06:25:37.530Z,24.50
2023-01-27T06:30:40.075Z,23.73
2023-01-27T06:35:41.836Z,22.83
2023-01-27T06:40:44.240Z,27.05
2023-01-27T06:45:46.081Z,26.20
2023-01-27T06:50:47.700Z,26.33
2023-01-27T06:55:49.706Z,25.98
2023-01-27T07:00:52.161Z,21.17
2023-01-27T07:05:53.829Z,25.25
2023-01-27T07:10:55.507Z,16.20
2023-01-27T07:15:57.702Z,19.75
2023-01-27T07:20:59.391Z,23.60
2023-01-27T07:26:04.262Z,17.60
2023-01-27T07:31:09.802Z,18.40
2023-01-27T07:36:11.566Z,18.50
2023-01-27T07:41:14.648Z,21.75
2023-01-27T07:46:16.286Z,19.30
2023-01-27T07:51:17.978Z,17.55
2023-01-27T07:56:19.608Z,20.30
2023-01-27T08:01:21.286Z,23.08
2023-01-27T08:06:23.041Z,21.90
2023-01-27T08:11:24.650Z,30.88
2023-01-27T08:16:26.278Z,18.67
2023-01-27T08:21:32.821Z,25.70
2023-01-27T08:26:34.485Z,21.08
2023-01-27T08:31:36.217Z,19.15
2023-01-27T08:36:41.852Z,19.55
2023-01-27T08:41:43.457Z,17.95
2023-01-27T08:46:45.306Z,18.73
2023-01-27T08:51:47.127Z,16.58
2023-01-27T08:56:48.798Z,16.88
2023-01-27T09:01:50.432Z,16.45
2023-01-27T09:06:54.180Z,15.02
2023-01-27T09:11:55.816Z,24.45
2023-01-27T09:16:57.459Z,15.68
2023-01-27T09:21:59.625Z,14.43
2023-01-27T09:27:01.345Z,18.80
2023-01-27T09:32:03.758Z,17.38
2023-01-27T09:37:08.833Z,20.60
2023-01-27T09:42:27.188Z,21.00
2023-01-27T09:47:42.166Z,18.85
2023-01-27T09:52:50.879Z,23.75
2023-01-27T09:58:02.208Z,17.90
2023-01-27T10:03:26.354Z,19.25
2023-01-27T10:08:52.777Z,19.77
2023-01-27T10:14:18.890Z,18.15
2023-01-27T10:19:20.439Z,16.85
2023-01-27T10:24:37.202Z,24.75
2023-01-27T10:29:47.053Z,25.60
2023-01-27T10:35:23.918Z,21.13
2023-01-27T10:40:47.360Z,23.25
2023-01-27T10:46:23.889Z,26.95
2023-01-27T10:51:35.645Z,21.63
2023-01-27T10:56:47.527Z,21.02
2023-01-27T11:01:56.362Z,21.85
2023-01-27T11:06:59.089Z,22.58
2023-01-27T11:12:02.854Z,24.40
2023-01-27T11:17:37.630Z,27.17
2023-01-27T11:22:55.667Z,24.33
2023-01-27T11:28:11.211Z,37.67
2023-01-27T11:33:44.227Z,32.30
2023-01-27T11:38:46.494Z,29.83
2023-01-27T11:43:48.285Z,25.55
2023-01-27T11:48:52.453Z,26.50
2023-01-27T11:54:20.737Z,22.80
2023-01-27T11:59:52.769Z,26.42
2023-01-27T12:05:10.079Z,24.52
2023-01-27T12:10:24.258Z,26.20
2023-01-27T12:15:31.135Z,28.48
2023-01-27T12:20:32.753Z,27.20
2023-01-27T12:25:44.739Z,26.20
2023-01-27T12:30:46.972Z,26.02
2023-01-27T12:35:49.377Z,26.05
2023-01-27T12:41:01.508Z,24.60
2023-01-27T12:46:06.188Z,29.02
2023-01-27T12:51:15.639Z,30.38
2023-01-27T12:56:22.474Z,29.25
2023-01-27T13:01:27.035Z,25.30
2023-01-27T13:06:42.533Z,28.70
2023-01-27T13:11:44.800Z,21.80
2023-01-27T13:16:54.244Z,23.08
2023-01-27T13:21:56.262Z,18.75
2023-01-27T13:26:58.555Z,23.17
2023-01-27T13:32:23.681Z,22.60
2023-01-27T13:37:38.063Z,20.25
2023-01-27T13:42:55.475Z,24.88
2023-01-27T13:48:00.335Z,19.95
2023-01-27T13:53:02.613Z,24.88
2023-01-27T13:58:13.182Z,20.95
2023-01-27T14:03:26.082Z,15.13
2023-01-27T14:08:54.096Z,14.45
2023-01-27T14:14:04.523Z,18.83
2023-01-27T14:19:12.028Z,17.85
2023-01-27T14:24:35.738Z,20.00
2023-01-27T14:29:40.504Z,14.73
2023-01-27T14:35:07.788Z,16.30
2023-01-27T14:40:15.876Z,17.95
2023-01-27T14:45:30.711Z,16.80
2023-01-27T14:50:49.521Z,15.18
2023-01-27T14:56:18.517Z,13.70
2023-01-27T15:01:31.969Z,15.57
2023-01-27T15:06:47.752Z,20.48
2023-01-27T15:12:12.399Z,17.10
2023-01-27T15:17:28.750Z,21.67
2023-01-27T15:22:54.904Z,19.80
2023-01-27T15:32:58.382Z,16.02
2023-01-27T15:38:00.365Z,16.25
2023-01-27T15:43:05.165Z,14.93
2023-01-27T15:48:11.858Z,16.52
2023-01-27T15:53:16.776Z,19.67
2023-01-27T15:58:23.188Z,17.42
2023-01-27T16:03:48.117Z,16.00
2023-01-27T16:09:05.647Z,16.48
2023-01-27T16:14:16.976Z,15.82
2023-01-27T16:19:19.656Z,15.13
2023-01-27T16:24:41.838Z,18.10
2023-01-27T16:29:49.011Z,20.15
2023-01-27T16:34:53.503Z,17.65
2023-01-27T16:39:56.536Z,14.68
2023-01-27T16:45:01.542Z,16.33
2023-01-27T16:50:03.373Z,12.75
2023-01-27T16:55:05.437Z,13.48
2023-01-27T17:00:20.156Z,11.40
2023-01-27T17:05:22.333Z,14.48
2023-01-27T17:10:34.209Z,11.40
2023-01-27T17:15:38.117Z,15.70
2023-01-27T17:20:43.059Z,18.73
2023-01-27T17:25:46.556Z,19.20
2023-01-27T17:30:48.364Z,16.52
2023-01-27T17:35:52.664Z,20.55
2023-01-27T17:40:55.355Z,19.02
2023-01-27T17:46:06.245Z,21.88
2023-01-27T17:51:12.969Z,15.23
2023-01-27T17:56:19.799Z,18.08
2023-01-27T18:01:21.737Z,17.05
2023-01-27T18:06:29.629Z,18.10
2023-01-27T18:11:32.759Z,21.13
2023-01-27T18:16:35.319Z,22.67
2023-01-27T18:21:37.254Z,26.30
2023-01-27T18:26:38.809Z,23.80
2023-01-27T18:31:57.064Z,27.23
2023-01-27T18:37:06.600Z,22.95
2023-01-27T18:42:15.089Z,26.45
2023-01-27T18:47:19.638Z,24.65
2023-01-27T18:52:21.778Z,25.88
2023-01-27T18:57:23.482Z,28.75
2023-01-27T19:02:25.444Z,28.60
2023-01-27T19:07:27.091Z,28.55
2023-01-27T19:12:28.715Z,27.65
2023-01-27T19:17:30.393Z,23.30
2023-01-27T19:22:32.033Z,20.88
2023-01-27T19:27:33.874Z,22.15
2023-01-27T19:32:35.563Z,24.85
2023-01-27T19:37:37.254Z,26.25
2023-01-27T19:42:38.965Z,30.25
2023-01-27T19:47:43.691Z,28.90
2023-01-27T19:52:45.705Z,27.10
2023-01-27T19:57:48.541Z,25.40
2023-01-27T20:02:50.753Z,33.50
2023-01-27T20:07:57.241Z,31.85
2023-01-27T20:13:00.607Z,36.10
2023-01-27T20:18:02.278Z,30.35
2023-01-27T20:23:03.997Z,29.50
2023-01-27T20:28:05.696Z,35.92
2023-01-27T20:33:07.352Z,29.50
2023-01-27T20:38:09.196Z,30.27
2023-01-27T20:43:12.212Z,37.42
2023-01-27T20:48:13.884Z,32.13
2023-01-27T20:53:15.551Z,34.90
2023-01-27T20:58:17.210Z,30.77
2023-01-27T21:03:18.916Z,32.90
2023-01-27T21:08:21.947Z,33.42
2023-01-27T21:13:23.686Z,33.42
2023-01-27T21:18:25.459Z,30.60
2023-01-27T21:23:31.740Z,33.78
2023-01-27T21:28:34.021Z,31.45
2023-01-27T21:33:37.510Z,43.47
2023-01-27T21:38:39.443Z,33.20
2023-01-27T21:43:59.844Z,31.00
2023-01-27T21:49:01.480Z,30.38
2023-01-27T21:54:03.429Z,30.77
2023-01-27T21:59:05.134Z,30.77
2023-01-27T22:04:07.108Z,30.92
2023-01-27T22:09:08.794Z,38.22
2023-01-27T22:14:10.461Z,29.67
2023-01-27T22:19:12.131Z,29.27
2023-01-27T22:24:13.914Z,33.63
2023-01-27T22:29:16.006Z,32.42
2023-01-27T22:34:17.698Z,30.70
2023-01-27T22:39:19.848Z,30.13
2023-01-27T22:44:21.721Z,30.27
2023-01-27T22:49:23.447Z,28.52
2023-01-27T22:54:25.309Z,30.23
2023-01-27T22:59:27.021Z,27.13
2023-01-27T23:04:28.760Z,28.95
2023-01-27T23:09:31.300Z,28.50
2023-01-27T23:14:32.943Z,27.50
2023-01-27T23:19:34.570Z,28.27
2023-01-27T23:24:36.295Z,30.48
2023-01-27T23:29:37.944Z,26.58
2023-01-27T23:34:39.737Z,31.60
2023-01-27T23:39:46.003Z,28.10
2023-01-27T23:44:47.844Z,22.10
2023-01-27T23:49:49.452Z,20.88
2023-01-27T23:54:51.152Z,17.63
2023-01-27T23:59:52.785Z,15.27
